Alviso, California
Current Conditions -  °F | °C
As of 11:56 PM on Friday 24 Oct 2014 (Local Time) from KNUQ Reporting Station
Broken Clouds Broken Clouds  
Wind Chill: 65°   Ceiling: 3800
Heat Index: 65°   Visibility: 10mi
Dew Point: 59°   Wind: 15mph
Humidity: 81%   Direction: 120°ESE
Pressure: 29.95"   Gusts: NA
Location:  37.43°N, 121.97°W
Report Text: KNUQ 250656Z 12013KT 10SM BKN038 18/15 A2995 RMK AO2 SLP144 T01830150
Loading
Personal Weather Stations






























Interactive Weather Map
Tropical Storm Tracking
New forecast layout! Learn more

10-Day Weather Forecast

Advertisements
Track Severe Weather on mobile